createdAt,value
2022-09-21T00:04:04.446Z,8.20
2022-09-21T00:08:26.845Z,8.20
2022-09-21T00:12:49.564Z,8.20
2022-09-21T00:17:11.686Z,8.20
2022-09-21T00:21:34.704Z,8.10
2022-09-21T00:26:08.952Z,8.10
2022-09-21T00:30:31.126Z,8.00
2022-09-21T00:34:54.124Z,8.00
2022-09-21T00:39:16.644Z,7.90
2022-09-21T00:43:50.292Z,7.90
2022-09-21T00:48:12.564Z,7.80
2022-09-21T00:52:40.356Z,7.60
2022-09-21T00:57:03.208Z,7.50
2022-09-21T01:01:25.931Z,7.30
2022-09-21T01:05:48.343Z,7.20
2022-09-21T01:10:15.367Z,7.00
2022-09-21T01:15:08.645Z,6.90
2022-09-21T01:20:06.365Z,6.70
2022-09-21T01:24:55.656Z,6.70
2022-09-21T01:29:45.274Z,6.60
2022-09-21T01:34:17.704Z,6.70
2022-09-21T01:38:50.165Z,6.60
2022-09-21T01:43:20.584Z,6.60
2022-09-21T01:47:46.986Z,6.60
2022-09-21T01:52:18.864Z,6.60
2022-09-21T01:56:47.561Z,6.60
2022-09-21T02:01:16.604Z,6.50
2022-09-21T02:05:38.726Z,6.50
2022-09-21T02:10:03.425Z,6.40
2022-09-21T02:14:26.166Z,6.50
2022-09-21T02:19:00.359Z,6.40
2022-09-21T02:23:37.999Z,6.30
2022-09-21T02:28:20.663Z,6.30
2022-09-21T02:33:06.673Z,6.30
2022-09-21T02:37:43.684Z,6.30
2022-09-21T02:42:36.505Z,6.20
2022-09-21T02:47:21.824Z,6.20
2022-09-21T02:51:52.244Z,6.20
2022-09-21T02:56:15.504Z,6.20
2022-09-21T03:00:37.918Z,6.10
2022-09-21T03:05:00.004Z,6.10
2022-09-21T03:09:24.533Z,6.00
2022-09-21T03:13:46.944Z,5.90
2022-09-21T03:18:11.585Z,5.80
2022-09-21T03:22:33.816Z,5.90
2022-09-21T03:26:55.905Z,5.80
2022-09-21T03:31:18.030Z,5.80
2022-09-21T03:35:40.724Z,5.70
2022-09-21T03:40:03.171Z,5.80
2022-09-21T03:44:27.048Z,5.80
2022-09-21T03:48:49.066Z,5.90
2022-09-21T03:53:12.205Z,5.90
2022-09-21T03:57:35.924Z,5.90
2022-09-21T04:01:58.164Z,5.90
2022-09-21T04:06:21.045Z,6.00
2022-09-21T04:10:43.615Z,6.00
2022-09-21T04:15:11.485Z,6.00
2022-09-21T04:19:33.485Z,5.90
2022-09-21T04:23:55.816Z,5.90
2022-09-21T04:28:18.157Z,5.80
2022-09-21T04:32:40.665Z,5.80
2022-09-21T04:37:03.085Z,5.70
2022-09-21T04:41:25.172Z,5.80
2022-09-21T04:45:47.085Z,5.80
2022-09-21T04:50:09.886Z,5.90
2022-09-21T04:54:32.324Z,5.90
2022-09-21T04:58:54.534Z,6.00
2022-09-21T05:03:16.916Z,6.10
2022-09-21T05:07:38.965Z,6.20
2022-09-21T05:12:01.201Z,6.20
2022-09-21T05:16:24.130Z,6.40
2022-09-21T05:20:46.430Z,6.40
2022-09-21T05:25:09.827Z,6.50
2022-09-21T05:29:32.684Z,6.50
2022-09-21T05:34:39.865Z,6.50
2022-09-21T05:39:02.604Z,6.50
2022-09-21T05:43:25.045Z,6.50
2022-09-21T05:48:21.786Z,6.50
2022-09-21T05:53:36.747Z,6.50
2022-09-21T05:58:46.685Z,6.40
2022-09-21T06:03:29.525Z,6.60
2022-09-21T06:07:51.905Z,6.90
2022-09-21T06:12:14.526Z,7.20
2022-09-21T06:16:42.383Z,7.40
2022-09-21T06:21:04.757Z,7.80
2022-09-21T06:25:27.346Z,8.10
2022-09-21T06:29:49.945Z,8.70
2022-09-21T06:34:12.304Z,9.80
2022-09-21T06:38:35.906Z,12.20
2022-09-21T06:43:03.886Z,16.70
2022-09-21T06:47:26.644Z,19.50
2022-09-21T06:51:49.527Z,19.50
2022-09-21T06:56:12.525Z,19.90
2022-09-21T07:00:35.024Z,19.70
2022-09-21T07:04:58.884Z,18.10
2022-09-21T07:14:05.504Z,15.90
2022-09-21T07:18:27.884Z,15.90
2022-09-21T07:22:50.085Z,15.80
2022-09-21T07:27:12.244Z,15.90
2022-09-21T07:31:34.674Z,16.30
2022-09-21T07:35:57.285Z,16.70
2022-09-21T07:40:23.072Z,17.20
2022-09-21T07:44:47.897Z,18.30
2022-09-21T07:49:12.785Z,19.30
2022-09-21T07:53:40.084Z,19.80
2022-09-21T07:58:20.845Z,19.70
2022-09-21T08:02:47.463Z,19.00
2022-09-21T08:07:09.925Z,19.00
2022-09-21T08:11:37.586Z,20.20
2022-09-21T08:16:03.458Z,21.00
2022-09-21T08:20:25.963Z,23.10
2022-09-21T08:24:49.064Z,24.60
2022-09-21T08:29:12.227Z,24.20
2022-09-21T08:33:34.580Z,23.80
2022-09-21T08:37:56.725Z,24.80
2022-09-21T08:42:33.605Z,24.10
2022-09-21T08:47:13.906Z,22.80
2022-09-21T08:51:44.558Z,24.00
2022-09-21T08:56:09.165Z,27.10
2022-09-21T09:00:38.208Z,30.00
2022-09-21T09:05:37.245Z,31.90
2022-09-21T09:10:38.285Z,32.50
2022-09-21T09:15:16.092Z,33.40
2022-09-21T09:20:02.885Z,32.90
2022-09-21T09:24:47.005Z,31.60
2022-09-21T09:30:02.899Z,31.50
2022-09-21T09:34:34.125Z,29.50
2022-09-21T09:39:00.770Z,27.30
2022-09-21T09:43:29.028Z,27.00
2022-09-21T09:47:57.345Z,28.40
2022-09-21T09:52:19.565Z,30.20
2022-09-21T09:56:42.325Z,29.70
2022-09-21T10:01:05.365Z,29.50
2022-09-21T10:05:38.772Z,30.10
2022-09-21T10:10:01.146Z,29.40
2022-09-21T10:14:27.374Z,26.80
2022-09-21T10:19:03.765Z,26.40
2022-09-21T10:23:27.174Z,29.10
2022-09-21T10:27:52.005Z,27.60
2022-09-21T10:32:15.035Z,25.60
2022-09-21T10:36:39.488Z,27.30
2022-09-21T10:41:01.925Z,26.60
2022-09-21T10:45:27.265Z,26.90
2022-09-21T10:50:04.748Z,28.70
2022-09-21T10:54:31.885Z,26.70
2022-09-21T10:59:32.722Z,23.90
2022-09-21T11:04:09.846Z,23.00
2022-09-21T11:08:44.804Z,20.10
2022-09-21T11:13:18.964Z,18.10
2022-09-21T11:17:59.624Z,22.30
2022-09-21T11:22:43.162Z,27.10
2022-09-21T11:27:28.404Z,29.90
2022-09-21T11:32:32.516Z,27.10
2022-09-21T11:37:31.240Z,23.50
2022-09-21T11:42:21.085Z,20.30
2022-09-21T11:47:20.665Z,18.60
2022-09-21T11:51:57.390Z,18.10
2022-09-21T11:56:37.005Z,19.30
2022-09-21T12:01:02.444Z,22.20
2022-09-21T12:05:38.184Z,24.20
2022-09-21T12:10:48.464Z,24.60
2022-09-21T12:15:36.345Z,23.20
2022-09-21T12:20:08.025Z,21.10
2022-09-21T12:24:39.964Z,19.30
2022-09-21T12:29:17.665Z,18.00
2022-09-21T12:33:58.545Z,17.30
2022-09-21T12:38:29.532Z,16.80
2022-09-21T12:43:33.134Z,16.90
2022-09-21T12:48:42.618Z,17.40
2022-09-21T12:53:07.226Z,18.40
2022-09-21T12:58:16.819Z,18.90
2022-09-21T13:03:26.345Z,19.10
2022-09-21T13:08:15.725Z,18.60
2022-09-21T13:12:45.204Z,16.90
2022-09-21T13:17:17.805Z,15.60
2022-09-21T13:21:41.497Z,15.10
2022-09-21T13:26:08.416Z,15.40
2022-09-21T13:30:39.412Z,15.90
2022-09-21T13:36:04.543Z,16.10
2022-09-21T13:40:26.817Z,16.70
2022-09-21T13:44:48.985Z,17.20
2022-09-21T13:49:10.963Z,17.10
2022-09-21T13:53:40.506Z,16.90
2022-09-21T13:58:22.243Z,16.60
2022-09-21T14:03:04.503Z,16.40
2022-09-21T14:07:31.639Z,16.10
2022-09-21T14:12:06.473Z,15.70
2022-09-21T14:16:34.696Z,15.40
2022-09-21T14:21:20.018Z,15.20
2022-09-21T14:25:56.727Z,15.10
2022-09-21T14:30:34.226Z,15.10
2022-09-21T14:35:11.238Z,15.00
2022-09-21T14:39:34.046Z,14.90
2022-09-21T14:43:57.582Z,14.80
2022-09-21T14:48:43.910Z,14.90
2022-09-21T14:53:56.184Z,15.00
2022-09-21T14:59:19.468Z,14.90
2022-09-21T15:04:27.972Z,14.60
2022-09-21T15:09:50.189Z,14.40
2022-09-21T15:14:40.176Z,14.40
2022-09-21T15:19:23.898Z,14.30
2022-09-21T15:23:45.897Z,14.30
2022-09-21T15:28:12.222Z,14.30
2022-09-21T15:32:45.047Z,14.30
2022-09-21T15:37:20.644Z,14.20
2022-09-21T15:41:50.204Z,14.20
2022-09-21T15:46:13.213Z,14.30
2022-09-21T15:50:35.743Z,14.30
2022-09-21T15:55:15.477Z,14.30
2022-09-21T15:59:37.932Z,14.40
2022-09-21T16:04:07.828Z,14.30
2022-09-21T16:08:35.426Z,14.20
2022-09-21T16:13:40.437Z,13.90
2022-09-21T16:18:08.066Z,13.80
2022-09-21T16:22:38.824Z,13.70
2022-09-21T16:27:03.542Z,13.70
2022-09-21T16:31:37.548Z,13.60
2022-09-21T16:36:02.125Z,13.50
2022-09-21T16:40:30.443Z,13.40
2022-09-21T16:44:53.106Z,13.20
2022-09-21T16:49:24.753Z,13.00
2022-09-21T16:53:49.346Z,12.80
2022-09-21T16:58:11.906Z,12.80
2022-09-21T17:02:34.164Z,12.70
2022-09-21T17:06:57.345Z,12.70
2022-09-21T17:11:20.565Z,12.60
2022-09-21T17:15:47.522Z,12.50
2022-09-21T17:20:38.619Z,12.40
2022-09-21T17:25:00.765Z,12.10
2022-09-21T17:29:27.373Z,11.90
2022-09-21T17:33:51.826Z,11.80
2022-09-21T17:38:14.798Z,11.50
2022-09-21T17:42:43.365Z,11.30
2022-09-21T17:47:23.644Z,11.10
2022-09-21T17:52:04.789Z,10.90
2022-09-21T17:56:48.379Z,10.60
2022-09-21T18:01:29.607Z,10.30
2022-09-21T18:05:59.625Z,10.00
2022-09-21T18:10:26.445Z,9.80
2022-09-21T18:15:59.905Z,9.60
2022-09-21T18:20:29.887Z,9.40
2022-09-21T18:24:54.590Z,9.20
2022-09-21T18:29:40.719Z,9.00
2022-09-21T18:34:35.186Z,8.80
2022-09-21T18:39:13.966Z,8.80
2022-09-21T18:44:13.397Z,8.80
2022-09-21T18:48:50.963Z,8.70
2022-09-21T18:53:58.930Z,8.60
2022-09-21T18:58:21.926Z,8.50
2022-09-21T19:03:05.419Z,8.30
2022-09-21T19:08:04.345Z,8.10
2022-09-21T19:13:15.765Z,8.00
2022-09-21T19:18:12.646Z,8.00
2022-09-21T19:23:00.979Z,8.00
2022-09-21T19:27:40.476Z,7.90
2022-09-21T19:32:03.084Z,7.70
2022-09-21T19:36:25.715Z,7.50
2022-09-21T19:40:55.066Z,7.40
2022-09-21T19:45:45.338Z,7.40
2022-09-21T19:50:34.486Z,7.30
2022-09-21T19:55:18.845Z,7.30
2022-09-21T19:59:44.310Z,7.20
2022-09-21T20:04:07.614Z,7.20
2022-09-21T20:08:49.266Z,7.10
2022-09-21T20:13:42.481Z,7.00
2022-09-21T20:18:47.747Z,6.90
2022-09-21T20:23:13.845Z,6.80
2022-09-21T20:27:46.645Z,6.80
2022-09-21T20:32:09.885Z,6.70
2022-09-21T20:36:32.414Z,6.60
2022-09-21T20:40:54.746Z,6.60
2022-09-21T20:45:17.526Z,6.60
2022-09-21T20:49:40.086Z,6.50
2022-09-21T20:54:03.628Z,6.50
2022-09-21T20:58:26.504Z,6.40
2022-09-21T21:02:48.809Z,6.40
2022-09-21T21:07:10.807Z,6.50
2022-09-21T21:11:33.047Z,6.50
2022-09-21T21:15:55.606Z,6.50
2022-09-21T21:20:18.478Z,6.60
2022-09-21T21:24:41.298Z,6.60
2022-09-21T21:29:04.305Z,6.50
2022-09-21T21:33:26.985Z,6.50
2022-09-21T21:37:49.992Z,6.40
2022-09-21T21:42:13.085Z,6.40
2022-09-21T21:46:35.618Z,6.40
2022-09-21T21:51:02.468Z,6.30
2022-09-21T21:55:24.485Z,6.20
2022-09-21T21:59:46.829Z,6.20
2022-09-21T22:04:09.606Z,6.20
2022-09-21T22:08:33.887Z,6.20
2022-09-21T22:12:57.606Z,6.20
2022-09-21T22:17:19.944Z,6.20
2022-09-21T22:21:49.223Z,6.20
2022-09-21T22:26:17.404Z,6.20
2022-09-21T22:30:46.855Z,6.20
2022-09-21T22:36:17.788Z,6.10
2022-09-21T22:40:39.896Z,6.10
2022-09-21T22:45:02.273Z,5.90
2022-09-21T22:49:24.831Z,5.70
2022-09-21T22:53:49.635Z,5.70
2022-09-21T22:58:11.651Z,5.60
2022-09-21T23:02:35.291Z,5.60
2022-09-21T23:06:57.471Z,5.60
2022-09-21T23:11:27.353Z,5.60
2022-09-21T23:15:50.533Z,5.60
2022-09-21T23:20:13.611Z,5.50
2022-09-21T23:24:35.951Z,5.60
2022-09-21T23:29:04.191Z,5.60
2022-09-21T23:33:37.891Z,5.70
2022-09-21T23:37:59.930Z,5.90
2022-09-21T23:42:21.871Z,5.90
2022-09-21T23:46:44.244Z,6.10
2022-09-21T23:51:07.731Z,6.20
2022-09-21T23:55:31.229Z,6.20
2022-09-21T23:59:53.331Z,6.20
